»·PEaware :: N5954W KLGB-KBNG

N5954W :: KLGB-KBNG

FLIGHT INFORMATION

Flight Status: Arrived
Operator: Privately registered:
United States
More flights under this callsign
Pilot: Joshua M. (19482)
Aircraft: CESSNA 172 SKYHAWK
(C172)
More flights by this aircraft type
Origin: KLGB Long Beach
United States
Destination: KBNG Banning Mun
United States
More flights between these airports :: More routes between these airports
Route: +PDZ V16 SETER
File this flight plan on PilotEdge
Remarks: Outdated NAV Default XPlane
Altitude:
(Current/Filed)
0ft
Speed:
(Current/Filed)
240kts
Departed: 19-Jul-18 08:31 PM
Arrived: 19-Jul-18 09:12 PM
Distance/Time
Traveled:
66nm/0:40
Distance/Time
To Go:
Arrived

Flight Plot

Page will automatically refresh every two minutes.

Flight plan parsing failed; only flown route is shown


Map Options




Map Legend


Flown Route
Filed Route
Departure Airport
Arrival Airport
Navaid (VOR, NDB)
Fix

Horizontal Profiles

Position Reports

Time Latitude Longitude Heading Altitude Ground
Speed
19-Jul-18 20:26 33.817767 -118.158614 90 64ft 0kts
19-Jul-18 20:27 33.817781 -118.157686 88 64ft 0kts
19-Jul-18 20:28 33.817170 -118.157323 179 64ft 13kts
19-Jul-18 20:29 33.814953 -118.153582 91 64ft 24kts
19-Jul-18 20:30 33.814955 -118.149253 87 64ft 0kts
19-Jul-18 20:31 33.815750 -118.148899 316 64ft 23kts
19-Jul-18 20:32 33.830829 -118.160964 11 620ft 104kts
19-Jul-18 20:33 33.842353 -118.129088 83 1325ft 110kts
19-Jul-18 20:34 33.847039 -118.093667 83 2092ft 109kts
19-Jul-18 20:35 33.852100 -118.057188 83 2580ft 116kts
19-Jul-18 20:36 33.857062 -118.019315 83 3073ft 117kts
19-Jul-18 20:37 33.861980 -117.981262 84 3569ft 109kts
19-Jul-18 20:38 33.866530 -117.945791 83 4022ft 110kts
19-Jul-18 20:39 33.871303 -117.909694 84 4471ft 107kts
19-Jul-18 20:40 33.875855 -117.874008 84 4476ft 114kts
19-Jul-18 20:41 33.880635 -117.836213 84 4475ft 117kts
19-Jul-18 20:42 33.884840 -117.802798 84 4476ft 118kts
19-Jul-18 20:43 33.889333 -117.766916 84 4476ft 114kts
19-Jul-18 20:44 33.893904 -117.730266 84 4470ft 114kts
19-Jul-18 20:45 33.898344 -117.694598 83 4470ft 115kts
19-Jul-18 20:46 33.903293 -117.655233 83 4708ft 116kts
19-Jul-18 20:47 33.907924 -117.617714 75 5229ft 109kts
19-Jul-18 20:48 33.912401 -117.582112 75 5612ft 107kts
19-Jul-18 20:49 33.916175 -117.546460 78 5954ft 108kts
19-Jul-18 20:50 33.919625 -117.511292 48 6266ft 102kts
19-Jul-18 20:51 33.919413 -117.475165 102 6585ft 114kts
19-Jul-18 20:52 33.916048 -117.437646 101 6930ft 113kts
19-Jul-18 20:53 33.913493 -117.402695 101 6973ft 101kts
19-Jul-18 20:54 33.911340 -117.368553 100 6975ft 103kts
19-Jul-18 20:55 33.909304 -117.334396 101 6977ft 101kts
19-Jul-18 20:56 33.907325 -117.300842 101 6981ft 101kts
19-Jul-18 20:57 33.905388 -117.267029 101 6985ft 102kts
19-Jul-18 20:58 33.903378 -117.232945 86 6987ft 101kts
19-Jul-18 20:59 33.901785 -117.199970 85 6990ft 97kts
19-Jul-18 21:00 33.900022 -117.168395 84 6987ft 73kts
19-Jul-18 21:01 33.898971 -117.145008 83 6995ft 69kts
19-Jul-18 21:02 33.898090 -117.111833 82 6907ft 116kts
19-Jul-18 21:03 33.898752 -117.078952 81 6392ft 90kts
19-Jul-18 21:04 33.899211 -117.048449 78 5995ft 91kts
19-Jul-18 21:05 33.903243 -117.021297 71 5947ft 87kts
19-Jul-18 21:06 33.906698 -117.001212 71 5619ft 92kts
19-Jul-18 21:07 33.910076 -116.980887 71 5265ft 88kts
19-Jul-18 21:08 33.914052 -116.956899 71 4842ft 88kts
19-Jul-18 21:09 33.918949 -116.928067 71 4339ft 89kts
19-Jul-18 21:10 33.924151 -116.898659 71 3836ft 91kts
19-Jul-18 21:11 33.928392 -116.868434 90 3330ft 95kts
19-Jul-18 21:12 33.927769 -116.841569 87 2743ft 73kts
19-Jul-18 21:13 33.922469 -116.846135 271 2223ft 38kts
19-Jul-18 21:14 33.922805 -116.870721 298 2701ft 88kts
19-Jul-18 21:15 33.936975 -116.861851 87 3138ft 85kts
19-Jul-18 21:16 33.935269 -116.833997 94 3113ft 76kts
19-Jul-18 21:17 33.922425 -116.840469 277 2301ft 44kts
19-Jul-18 21:18 33.922500 -116.850362 271 2255ft 61kts
19-Jul-18 21:19 33.922111 -116.873567 311 2862ft 90kts
19-Jul-18 21:20 33.940697 -116.862471 85 3184ft 115kts
19-Jul-18 21:21 33.937742 -116.828498 127 3127ft 95kts
19-Jul-18 21:22 33.922707 -116.831175 260 2505ft 50kts
19-Jul-18 21:23 33.922469 -116.846145 271 2223ft 17kts
19-Jul-18 21:24 33.922389 -116.852906 268 2437ft 47kts
19-Jul-18 21:25 33.921520 -116.877772 290 2903ft 95kts
19-Jul-18 21:26 33.942776 -116.877666 59 3203ft 103kts
19-Jul-18 21:27 33.943381 -116.844722 88 3195ft 96kts

Navigation Log

Ident Type
Flight plan parsing failed, navigation log unavailable